Time;durP1;ratioP1;P1;durP2;ratioP2;P2;SDS_P1;SDS_P2;PMS_P1;PMS_P2;Temp;Humidity;BMP_temperature;BMP_pressure;BME280_temperature;BME280_humidity;BME280_pressure;Samples;Min_cycle;Max_cycle;Signal;HPM_P1;HPM_P2
2022/08/27 00:00:28;;;;;;;16.17;8.73;;;19.10;92.20;;;;;;5043550;28;20087;-84
2022/08/27 00:02:53;;;;;;;19.52;9.48;;;19.10;92.10;;;;;;5033209;28;20029;-84
2022/08/27 00:05:20;;;;;;;21.92;9.50;;;19.20;92.00;;;;;;5032376;28;20033;-84
2022/08/27 00:07:47;;;;;;;20.90;10.20;;;19.20;91.90;;;;;;5027244;28;20029;-84
2022/08/27 00:10:23;;;;;;;20.23;10.10;;;19.20;91.90;;;;;;5027372;28;20026;-84
2022/08/27 00:12:49;;;;;;;19.10;9.23;;;19.20;91.90;;;;;;5031563;28;20115;-85
2022/08/27 00:15:16;;;;;;;14.57;8.73;;;19.20;91.80;;;;;;5032072;28;20030;-85
2022/08/27 00:17:44;;;;;;;19.73;10.13;;;19.20;91.70;;;;;;5023701;28;20026;-85
2022/08/27 00:20:11;;;;;;;19.58;8.85;;;19.20;91.80;;;;;;5036446;28;20033;-84
2022/08/27 00:22:36;;;;;;;16.02;9.40;;;19.20;91.80;;;;;;5034533;28;20342;-85
2022/08/27 00:25:03;;;;;;;19.70;9.48;;;19.10;91.80;;;;;;5034754;28;20091;-85
2022/08/27 00:27:29;;;;;;;21.52;9.38;;;19.10;91.90;;;;;;5033377;28;20782;-85
2022/08/27 00:29:54;;;;;;;18.40;8.60;;;19.10;91.80;;;;;;5037360;28;20041;-84
2022/08/27 00:32:20;;;;;;;17.98;8.88;;;19.20;91.80;;;;;;5035472;28;20026;-85
2022/08/27 00:34:45;;;;;;;20.52;9.13;;;19.10;91.90;;;;;;5030613;28;20492;-84
2022/08/27 00:37:11;;;;;;;20.20;8.77;;;19.10;91.90;;;;;;5034050;28;20025;-85
2022/08/27 00:39:36;;;;;;;20.73;8.45;;;19.10;91.90;;;;;;5031157;28;20520;-86
2022/08/27 00:42:04;;;;;;;15.90;7.80;;;19.10;91.80;;;;;;5035430;28;20435;-85
2022/08/27 00:44:30;;;;;;;21.00;8.95;;;19.20;91.70;;;;;;5030666;28;20032;-85
2022/08/27 00:47:02;;;;;;;16.10;8.05;;;19.20;91.50;;;;;;5032952;28;20037;-85
2022/08/27 00:49:41;;;;;;;17.35;7.95;;;19.10;91.20;;;;;;5028300;28;20029;-85
2022/08/27 00:52:16;;;;;;;16.60;7.65;;;19.10;91.30;;;;;;5031415;28;20017;-85
2022/08/27 00:54:42;;;;;;;16.67;8.32;;;19.10;91.40;;;;;;5033072;28;20040;-84
2022/08/27 00:57:07;;;;;;;19.42;7.70;;;19.10;91.60;;;;;;5033911;28;20029;-84
2022/08/27 00:59:33;;;;;;;17.73;6.78;;;19.10;91.40;;;;;;5046941;28;20032;-85
2022/08/27 01:02:17;;;;;;;18.70;7.88;;;19.10;91.30;;;;;;5031337;28;20485;-85
2022/08/27 01:04:47;;;;;;;12.55;7.30;;;19.10;91.30;;;;;;5034627;28;20025;-85
2022/08/27 01:07:13;;;;;;;14.02;7.45;;;19.20;91.20;;;;;;5032066;28;20053;-85
2022/08/27 01:09:40;;;;;;;13.73;7.07;;;19.20;91.00;;;;;;5028234;28;20060;-84
2022/08/27 01:12:06;;;;;;;14.98;7.28;;;19.10;90.90;;;;;;5034266;28;20492;-85
2022/08/27 01:14:32;;;;;;;11.77;6.97;;;19.20;91.10;;;;;;5031846;28;20025;-85
2022/08/27 01:17:01;;;;;;;12.68;6.75;;;19.10;91.00;;;;;;5032975;28;20084;-85
2022/08/27 01:19:33;;;;;;;12.25;7.07;;;19.10;91.00;;;;;;5032112;28;20083;-85
2022/08/27 01:22:07;;;;;;;13.13;6.47;;;19.00;90.90;;;;;;5033464;28;20029;-84
2022/08/27 01:24:38;;;;;;;13.15;6.57;;;19.00;91.00;;;;;;5027364;28;20434;-85
2022/08/27 01:27:07;;;;;;;11.73;5.85;;;19.00;91.00;;;;;;5033409;28;20030;-85
2022/08/27 01:29:33;;;;;;;13.82;6.25;;;19.00;91.10;;;;;;5031897;28;20021;-84
2022/08/27 01:32:06;;;;;;;10.65;5.82;;;19.00;91.10;;;;;;5031177;28;20111;-84
2022/08/27 01:34:32;;;;;;;13.63;6.10;;;19.00;91.10;;;;;;5031794;28;20048;-86
2022/08/27 01:36:57;;;;;;;14.80;6.03;;;18.90;91.20;;;;;;5032180;28;20064;-85
2022/08/27 01:39:23;;;;;;;10.45;5.47;;;18.90;91.10;;;;;;5033326;28;20041;-85
2022/08/27 01:41:49;;;;;;;15.10;4.95;;;18.80;91.30;;;;;;5033634;28;20121;-85
2022/08/27 01:44:15;;;;;;;11.40;5.50;;;18.80;91.60;;;;;;5034167;28;20616;-85
2022/08/27 01:46:40;;;;;;;9.85;5.38;;;18.80;91.50;;;;;;5031809;28;20139;-85
2022/08/27 01:49:08;;;;;;;11.20;5.07;;;18.70;91.60;;;;;;5030858;28;20029;-84
2022/08/27 01:51:33;;;;;;;11.05;5.40;;;18.70;91.70;;;;;;5031712;28;20033;-85
2022/08/27 01:53:59;;;;;;;10.93;4.90;;;18.70;91.90;;;;;;5027875;28;20056;-85
2022/08/27 01:56:24;;;;;;;12.65;4.55;;;18.60;91.90;;;;;;5040511;28;20056;-84
2022/08/27 01:58:50;;;;;;;10.18;4.82;;;18.70;91.70;;;;;;5027218;28;20025;-84
2022/08/27 02:01:16;;;;;;;11.25;4.88;;;18.70;91.60;;;;;;5031572;28;20095;-85
2022/08/27 02:03:42;;;;;;;12.63;5.85;;;18.70;91.70;;;;;;5030889;28;20033;-85
2022/08/27 02:06:10;;;;;;;9.88;5.13;;;18.70;91.50;;;;;;5032809;28;20091;-85
2022/08/27 02:08:36;;;;;;;13.38;4.95;;;18.70;91.50;;;;;;5029479;28;20060;-84
2022/08/27 02:11:02;;;;;;;10.25;4.70;;;18.60;91.70;;;;;;5032297;28;20041;-85
2022/08/27 02:13:28;;;;;;;13.45;4.97;;;18.60;91.90;;;;;;5031742;28;20147;-85
2022/08/27 02:15:54;;;;;;;10.50;4.03;;;18.60;92.10;;;;;;5032489;28;20025;-85
2022/08/27 02:18:20;;;;;;;10.68;4.03;;;18.60;92.00;;;;;;5025573;28;20026;-85
2022/08/27 02:20:46;;;;;;;12.80;4.22;;;18.50;92.10;;;;;;5031934;28;20040;-85
2022/08/27 02:23:13;;;;;;;13.63;5.00;;;18.50;92.40;;;;;;5029237;28;20047;-84
2022/08/27 02:25:39;;;;;;;11.55;4.25;;;18.50;92.40;;;;;;5020925;28;20097;-84
2022/08/27 02:28:05;;;;;;;12.52;5.13;;;18.50;92.40;;;;;;5027764;28;20056;-85
2022/08/27 02:30:32;;;;;;;15.52;4.75;;;18.50;92.60;;;;;;5032025;28;20049;-84
2022/08/27 02:33:03;;;;;;;13.65;4.70;;;18.50;92.60;;;;;;5030962;28;20029;-85
2022/08/27 02:35:29;;;;;;;;;;;18.50;92.50;;;;;;5033714;28;20017;-85
2022/08/27 02:37:55;;;;;;;17.52;5.40;;;18.50;92.70;;;;;;5030851;28;19913;-84
2022/08/27 02:40:23;;;;;;;16.38;4.80;;;18.50;92.70;;;;;;5031081;28;20117;-85
2022/08/27 02:42:49;;;;;;;11.68;4.43;;;18.50;92.70;;;;;;5031642;28;20119;-85
2022/08/27 02:45:16;;;;;;;13.02;4.43;;;18.50;92.80;;;;;;5027227;28;20088;-84
2022/08/27 02:47:41;;;;;;;13.85;4.85;;;18.50;92.60;;;;;;5033240;28;20037;-84
2022/08/27 02:50:08;;;;;;;10.85;4.13;;;18.50;92.70;;;;;;5028332;28;20034;-86
2022/08/27 02:52:33;;;;;;;11.15;4.07;;;18.50;92.60;;;;;;5028174;28;20076;-85
2022/08/27 02:54:59;;;;;;;10.93;4.15;;;18.40;92.90;;;;;;5033515;28;20056;-84
2022/08/27 02:57:25;;;;;;;12.30;4.20;;;18.50;92.80;;;;;;5024979;28;20069;-85
2022/08/27 02:59:52;;;;;;;15.00;4.63;;;18.50;92.70;;;;;;5029541;28;20469;-85
2022/08/27 03:02:19;;;;;;;15.65;4.50;;;18.50;92.60;;;;;;5026601;28;20031;-85
2022/08/27 03:04:46;;;;;;;12.00;4.60;;;18.50;92.50;;;;;;5030325;28;20085;-85
2022/08/27 03:07:12;;;;;;;11.52;4.28;;;18.50;92.40;;;;;;5031718;28;20029;-85
2022/08/27 03:09:37;;;;;;;17.35;5.30;;;18.60;92.30;;;;;;5025938;28;20557;-84
2022/08/27 03:12:03;;;;;;;14.80;5.05;;;18.50;92.40;;;;;;5018845;28;20097;-85
2022/08/27 03:14:30;;;;;;;12.05;5.13;;;18.50;92.40;;;;;;5025985;28;20543;-85
2022/08/27 03:18:16;;;;;;;14.35;4.97;;;18.60;92.30;;;;;;5022393;28;20472;-85
2022/08/27 03:19:41;;;;;;;13.93;4.80;;;18.50;92.40;;;;;;5021954;28;21208;-85
2022/08/27 03:22:06;;;;;;;13.63;5.13;;;18.60;92.30;;;;;;5021231;28;20030;-85
2022/08/27 03:24:32;;;;;;;17.20;5.18;;;18.60;92.20;;;;;;5041524;28;20032;-84
2022/08/27 03:26:58;;;;;;;15.73;5.10;;;18.60;92.00;;;;;;5028253;28;20477;-85
2022/08/27 03:29:24;;;;;;;15.63;5.30;;;18.60;92.20;;;;;;5026056;28;20064;-85
2022/08/27 03:31:49;;;;;;;16.75;5.60;;;18.60;92.10;;;;;;5030518;28;20025;-86
2022/08/27 03:34:15;;;;;;;13.18;5.07;;;18.60;92.10;;;;;;5031123;28;20525;-85
2022/08/27 03:36:40;;;;;;;12.90;5.15;;;18.70;92.30;;;;;;5023801;28;20123;-86
2022/08/27 03:39:05;;;;;;;13.50;5.38;;;18.70;92.10;;;;;;5020942;28;20061;-86
2022/08/27 03:41:31;;;;;;;14.13;5.57;;;18.60;92.20;;;;;;5029242;28;20409;-86
2022/08/27 03:43:56;;;;;;;12.80;5.57;;;18.60;92.30;;;;;;5028022;28;20037;-86
2022/08/27 03:46:22;;;;;;;16.70;6.00;;;18.60;92.20;;;;;;5028161;28;20060;-85
2022/08/27 03:48:47;;;;;;;14.25;5.55;;;18.60;92.30;;;;;;5031960;28;20079;-86
2022/08/27 03:51:14;;;;;;;14.93;7.10;;;18.60;92.40;;;;;;5029473;28;20399;-85
2022/08/27 03:53:41;;;;;;;17.85;6.90;;;18.60;92.30;;;;;;5026811;28;20028;-85
2022/08/27 03:56:07;;;;;;;13.77;6.28;;;18.60;92.40;;;;;;5029346;28;20457;-87
2022/08/27 03:58:34;;;;;;;15.35;6.30;;;18.60;92.30;;;;;;5035573;28;20040;-87
2022/08/27 04:01:00;;;;;;;13.98;7.30;;;18.60;92.30;;;;;;5027650;28;20064;-85
2022/08/27 04:03:26;;;;;;;19.05;6.72;;;18.60;92.30;;;;;;5028335;28;20029;-84
2022/08/27 04:05:53;;;;;;;17.05;7.07;;;18.60;92.20;;;;;;5033506;28;20060;-85
2022/08/27 04:08:19;;;;;;;15.07;6.35;;;18.60;92.10;;;;;;5027173;28;20026;-84
2022/08/27 04:10:45;;;;;;;14.13;6.30;;;18.60;92.20;;;;;;5019135;28;20031;-84
2022/08/27 04:13:10;;;;;;;12.85;6.10;;;18.50;92.10;;;;;;5034157;28;20022;-85
2022/08/27 04:15:40;;;;;;;14.25;6.43;;;18.60;92.30;;;;;;5033939;28;20026;-85
2022/08/27 04:18:06;;;;;;;9.65;6.28;;;18.60;92.10;;;;;;5034326;28;20413;-83
2022/08/27 04:20:31;;;;;;;11.35;6.05;;;18.60;92.30;;;;;;5033705;28;20017;-83
2022/08/27 04:22:57;;;;;;;16.80;6.20;;;18.60;92.20;;;;;;5033633;28;20024;-83
2022/08/27 04:25:23;;;;;;;15.00;6.57;;;18.50;92.20;;;;;;5033553;28;20033;-83
2022/08/27 04:27:48;;;;;;;12.18;5.85;;;18.50;92.10;;;;;;5033672;28;20059;-83
2022/08/27 04:30:14;;;;;;;15.10;6.45;;;18.50;92.10;;;;;;5032619;28;20030;-84
2022/08/27 04:32:40;;;;;;;11.90;6.72;;;18.50;92.20;;;;;;5031754;28;20025;-84
2022/08/27 04:35:06;;;;;;;15.20;6.00;;;18.60;92.20;;;;;;5032085;28;20029;-83
2022/08/27 04:37:32;;;;;;;14.13;6.53;;;18.50;92.10;;;;;;5032896;28;20025;-83
2022/08/27 04:39:58;;;;;;;12.52;6.28;;;18.50;92.10;;;;;;5033131;28;20104;-83
2022/08/27 04:42:24;;;;;;;13.43;5.75;;;18.50;91.80;;;;;;5032337;28;20048;-84
2022/08/27 04:44:51;;;;;;;16.52;6.32;;;18.60;92.10;;;;;;5033161;28;20037;-83
2022/08/27 04:47:17;;;;;;;14.48;6.38;;;18.50;92.00;;;;;;5034281;28;20029;-84
2022/08/27 04:49:42;;;;;;;12.63;6.30;;;18.50;92.20;;;;;;5031611;28;20063;-83
2022/08/27 04:52:08;;;;;;;16.25;6.13;;;18.50;92.00;;;;;;5029594;28;20025;-84
2022/08/27 04:54:34;;;;;;;17.45;7.30;;;18.60;92.10;;;;;;5020023;28;20053;-84
2022/08/27 04:57:02;;;;;;;15.45;7.60;;;18.60;91.80;;;;;;5033228;28;20032;-83
2022/08/27 04:59:27;;;;;;;18.58;9.23;;;18.60;92.00;;;;;;5033450;28;20389;-84
2022/08/27 05:01:53;;;;;;;16.45;8.18;;;18.50;91.90;;;;;;5031459;28;20022;-83
2022/08/27 05:04:18;;;;;;;16.63;8.82;;;18.50;91.90;;;;;;5031312;28;20030;-83
2022/08/27 05:06:44;;;;;;;15.95;8.07;;;18.50;92.10;;;;;;5029145;28;20780;-82
2022/08/27 05:09:12;;;;;;;13.52;8.32;;;18.50;91.90;;;;;;5027642;28;20104;-83
2022/08/27 05:11:37;;;;;;;15.38;7.55;;;18.50;91.90;;;;;;5030478;28;20025;-82
2022/08/27 05:14:06;;;;;;;14.88;7.97;;;18.50;92.00;;;;;;5033201;28;20109;-84
2022/08/27 05:16:35;;;;;;;19.77;8.52;;;18.50;92.10;;;;;;5031291;28;20091;-84
2022/08/27 05:19:01;;;;;;;19.08;9.35;;;18.50;91.90;;;;;;5033495;28;20030;-84
2022/08/27 05:21:30;;;;;;;17.65;9.82;;;18.50;92.10;;;;;;5031653;28;20473;-83
2022/08/27 05:23:58;;;;;;;20.92;10.38;;;18.50;92.10;;;;;;5031430;28;20025;-84
2022/08/27 05:26:24;;;;;;;19.92;10.57;;;18.50;92.10;;;;;;5031977;28;20036;-83
2022/08/27 05:28:50;;;;;;;20.23;10.13;;;18.50;91.90;;;;;;5032343;28;20145;-83
2022/08/27 05:31:17;;;;;;;16.48;10.85;;;18.50;91.80;;;;;;5032136;28;20077;-83
2022/08/27 05:33:42;;;;;;;18.25;9.73;;;18.50;92.00;;;;;;5032077;28;20063;-83
2022/08/27 05:36:16;;;;;;;24.58;11.35;;;18.50;91.90;;;;;;5033135;28;20033;-84
2022/08/27 05:38:42;;;;;;;20.33;10.07;;;18.50;91.70;;;;;;5026720;28;20041;-83
2022/08/27 05:41:11;;;;;;;20.25;11.15;;;18.50;91.50;;;;;;5023477;28;20048;-83
2022/08/27 05:43:40;;;;;;;18.42;9.95;;;18.50;91.70;;;;;;5024734;28;20098;-83
2022/08/27 05:46:10;;;;;;;17.73;9.45;;;18.50;91.50;;;;;;5029404;28;20117;-84
2022/08/27 05:48:37;;;;;;;19.45;9.45;;;18.50;91.40;;;;;;5030143;28;20084;-83
2022/08/27 05:51:15;;;;;;;19.88;8.73;;;18.50;91.40;;;;;;5032003;28;20032;-84
2022/08/27 05:53:41;;;;;;;17.77;8.15;;;18.60;91.30;;;;;;5028996;28;20037;-83
2022/08/27 05:56:15;;;;;;;16.83;7.03;;;18.60;90.90;;;;;;5030326;28;20087;-83
2022/08/27 06:01:26;;;;;;;14.93;6.10;;;18.70;90.10;;;;;;5030913;28;20041;-83
2022/08/27 06:03:53;;;;;;;14.77;5.95;;;18.70;90.00;;;;;;5031943;28;20041;-84
2022/08/27 06:06:19;;;;;;;12.43;5.53;;;18.70;89.90;;;;;;5030356;28;20033;-84
2022/08/27 06:08:45;;;;;;;12.85;4.90;;;18.70;89.60;;;;;;5030251;28;20083;-84
2022/08/27 06:11:10;;;;;;;10.50;4.60;;;18.70;89.80;;;;;;5030361;28;20061;-83
2022/08/27 06:13:36;;;;;;;11.13;3.80;;;18.70;89.50;;;;;;5031830;28;20042;-83
2022/08/27 06:16:12;;;;;;;14.00;3.58;;;18.70;89.40;;;;;;5031701;28;20026;-83
2022/08/27 06:18:39;;;;;;;5.43;3.25;;;18.70;89.10;;;;;;5030927;28;20033;-84
2022/08/27 06:21:05;;;;;;;7.80;3.17;;;18.70;89.10;;;;;;5021995;28;20382;-84
2022/08/27 06:23:32;;;;;;;10.10;3.00;;;18.60;89.30;;;;;;5014243;28;20026;-83
2022/08/27 06:25:59;;;;;;;9.75;3.10;;;18.70;89.40;;;;;;5030369;28;20079;-83
2022/08/27 06:28:28;;;;;;;12.02;2.80;;;18.60;89.30;;;;;;5042457;28;20107;-83
2022/08/27 06:31:05;;;;;;;8.55;3.00;;;18.70;89.40;;;;;;5032431;28;20022;-84
2022/08/27 06:33:31;;;;;;;8.63;3.13;;;18.60;89.20;;;;;;5031805;28;20036;-83
2022/08/27 06:36:01;;;;;;;12.07;3.20;;;18.80;89.20;;;;;;5031072;28;20021;-84
2022/08/27 06:38:28;;;;;;;12.68;2.70;;;18.70;89.30;;;;;;5029792;28;20026;-84
2022/08/27 06:40:55;;;;;;;11.43;3.20;;;18.70;89.20;;;;;;5031344;28;20441;-84
2022/08/27 06:43:21;;;;;;;8.05;3.42;;;18.60;89.40;;;;;;5029975;28;20053;-84
2022/08/27 06:45:47;;;;;;;13.57;3.50;;;18.70;89.20;;;;;;5036399;28;20083;-83
2022/08/27 06:48:12;;;;;;;10.75;3.28;;;18.80;88.90;;;;;;5031979;28;20524;-84
2022/08/27 06:50:39;;;;;;;9.20;3.20;;;18.80;88.70;;;;;;5031865;28;20414;-84
2022/08/27 06:53:05;;;;;;;12.07;3.47;;;18.90;88.80;;;;;;5029362;28;20026;-83
2022/08/27 06:55:30;;;;;;;7.05;3.05;;;18.80;88.20;;;;;;5031887;28;20017;-84
2022/08/27 06:57:56;;;;;;;9.55;3.58;;;18.80;87.80;;;;;;5028793;28;20075;-84
2022/08/27 07:00:21;;;;;;;10.13;3.67;;;18.90;87.60;;;;;;5011216;28;20459;-84
2022/08/27 07:02:49;;;;;;;14.23;3.63;;;19.00;87.50;;;;;;5024940;28;20034;-83
2022/08/27 07:05:14;;;;;;;11.98;3.58;;;19.00;87.30;;;;;;5032801;28;20377;-83
2022/08/27 07:07:40;;;;;;;11.65;3.80;;;19.00;86.80;;;;;;5028448;28;20036;-83
2022/08/27 07:10:06;;;;;;;11.35;3.95;;;18.90;86.80;;;;;;5031916;28;20319;-83
2022/08/27 07:12:31;;;;;;;10.63;3.65;;;19.00;86.90;;;;;;5030226;28;20389;-84
2022/08/27 07:14:57;;;;;;;6.78;3.92;;;19.00;86.50;;;;;;5031662;28;20017;-83
2022/08/27 07:17:22;;;;;;;14.23;3.70;;;19.00;86.60;;;;;;5030876;28;20030;-83
2022/08/27 07:19:48;;;;;;;8.13;3.30;;;19.00;86.80;;;;;;5026774;28;20060;-83
2022/08/27 07:22:13;;;;;;;7.60;3.33;;;19.00;86.80;;;;;;5029076;28;20071;-83
2022/08/27 07:24:39;;;;;;;10.90;3.65;;;19.10;86.90;;;;;;5030076;28;20540;-83
2022/08/27 07:27:05;;;;;;;8.05;4.07;;;19.00;86.80;;;;;;5030349;28;20025;-84
2022/08/27 07:29:31;;;;;;;8.38;3.47;;;19.00;87.10;;;;;;5020778;28;20104;-84
2022/08/27 07:31:57;;;;;;;10.82;4.25;;;19.10;87.00;;;;;;5033127;28;20418;-84
2022/08/27 07:34:23;;;;;;;9.35;3.70;;;19.30;86.70;;;;;;5035887;28;20092;-84
2022/08/27 07:36:50;;;;;;;9.10;3.83;;;19.20;86.50;;;;;;5037341;28;20026;-84
2022/08/27 07:39:16;;;;;;;10.48;4.00;;;19.30;86.10;;;;;;5035695;28;20052;-83
2022/08/27 07:44:26;;;;;;;7.75;4.22;;;19.20;85.60;;;;;;5035720;28;20036;-83
2022/08/27 07:46:57;;;;;;;13.88;4.97;;;19.30;85.40;;;;;;5030034;28;20401;-83
2022/08/27 07:49:24;;;;;;;11.38;4.28;;;19.20;85.40;;;;;;5034659;28;20013;-83
2022/08/27 07:51:49;;;;;;;11.45;4.25;;;19.10;85.00;;;;;;5030185;28;20045;-84
2022/08/27 07:54:15;;;;;;;14.80;5.35;;;19.20;85.40;;;;;;5037328;28;20458;-84
2022/08/27 07:56:42;;;;;;;14.27;4.75;;;19.10;86.00;;;;;;5032515;28;20040;-83
2022/08/27 07:59:08;;;;;;;8.52;4.70;;;19.00;86.50;;;;;;5033706;28;20026;-84
2022/08/27 08:01:33;;;;;;;10.25;4.63;;;19.00;86.20;;;;;;5033640;28;20061;-83
2022/08/27 08:03:59;;;;;;;9.90;5.05;;;18.90;86.40;;;;;;5033729;28;20594;-84
2022/08/27 08:06:25;;;;;;;10.63;5.35;;;18.90;86.50;;;;;;5033348;28;20033;-83
2022/08/27 08:08:50;;;;;;;9.25;4.63;;;18.90;86.80;;;;;;5032588;28;20030;-84
2022/08/27 08:11:17;;;;;;;8.82;4.43;;;18.80;86.70;;;;;;5041773;28;20594;-84
2022/08/27 08:13:44;;;;;;;8.35;4.57;;;18.90;87.00;;;;;;5033955;28;20112;-83
2022/08/27 08:16:10;;;;;;;11.40;4.60;;;18.90;86.60;;;;;;5034236;28;20030;-84
2022/08/27 08:18:36;;;;;;;10.05;4.97;;;18.80;86.60;;;;;;5033974;28;20382;-84
2022/08/27 08:21:06;;;;;;;9.65;4.53;;;18.90;86.90;;;;;;5031495;28;20041;-83
2022/08/27 08:23:32;;;;;;;11.00;4.15;;;19.00;86.60;;;;;;5019085;28;20029;-84
2022/08/27 08:25:58;;;;;;;8.00;3.08;;;19.10;85.80;;;;;;5036179;28;20040;-83
2022/08/27 08:28:24;;;;;;;9.50;3.30;;;19.20;85.20;;;;;;5035361;28;20487;-83
2022/08/27 08:30:51;;;;;;;11.27;3.00;;;19.40;84.70;;;;;;5034338;28;20025;-83
2022/08/27 08:33:17;;;;;;;8.10;2.72;;;19.40;84.00;;;;;;5035214;28;20028;-85
2022/08/27 08:35:43;;;;;;;10.63;3.13;;;19.40;84.00;;;;;;5035457;28;20096;-84
2022/08/27 08:38:08;;;;;;;7.70;2.95;;;19.20;84.10;;;;;;5034210;28;20072;-84
2022/08/27 08:40:40;;;;;;;12.07;2.95;;;19.30;83.80;;;;;;5032871;28;20038;-83
2022/08/27 08:43:38;;;;;;;10.27;2.70;;;19.50;83.60;;;;;;5035178;28;20033;-84
2022/08/27 08:46:29;;;;;;;9.63;2.55;;;19.50;83.40;;;;;;5031028;28;20049;-84
2022/08/27 08:49:01;;;;;;;7.28;2.63;;;19.50;83.80;;;;;;5026188;28;20025;-83
2022/08/27 08:51:38;;;;;;;9.77;2.78;;;19.40;83.60;;;;;;5019893;28;20481;-83
2022/08/27 08:54:09;;;;;;;5.22;2.35;;;19.40;83.80;;;;;;5033558;28;20028;-84
2022/08/27 08:56:56;;;;;;;5.93;2.08;;;19.30;83.90;;;;;;5022706;28;20088;-83
2022/08/27 08:59:24;;;;;;;8.48;2.60;;;19.30;84.20;;;;;;5034811;28;20030;-84
2022/08/27 09:01:50;;;;;;;7.93;2.47;;;19.10;84.10;;;;;;5037955;28;20036;-84
2022/08/27 09:04:16;;;;;;;9.35;2.60;;;19.10;83.90;;;;;;5033145;28;20080;-84
2022/08/27 09:07:03;;;;;;;8.18;2.15;;;19.10;84.00;;;;;;5033010;28;20057;-83
2022/08/27 09:09:53;;;;;;;9.57;2.20;;;19.10;83.50;;;;;;5034482;28;20427;-83
2022/08/27 09:12:24;;;;;;;8.32;2.28;;;19.20;83.10;;;;;;5034345;28;20025;-83
2022/08/27 09:15:17;;;;;;;11.07;2.10;;;19.30;82.50;;;;;;5033633;28;20142;-84
2022/08/27 09:17:44;;;;;;;11.25;2.50;;;19.20;82.30;;;;;;5038634;28;20441;-84
2022/08/27 09:20:11;;;;;;;8.93;2.05;;;19.30;82.00;;;;;;5036993;28;20059;-83
2022/08/27 09:23:04;;;;;;;8.15;2.13;;;19.50;81.90;;;;;;5032455;28;20084;-84
2022/08/27 09:25:34;;;;;;;9.48;1.90;;;19.40;81.40;;;;;;5028857;28;20092;-82
2022/08/27 09:28:05;;;;;;;6.72;2.00;;;19.50;81.10;;;;;;5030993;28;20031;-83
2022/08/27 09:30:42;;;;;;;11.25;2.38;;;19.40;81.60;;;;;;5013828;28;20489;-85
2022/08/27 09:33:07;;;;;;;8.15;1.85;;;19.40;82.10;;;;;;5012022;28;20025;-84
2022/08/27 09:35:41;;;;;;;7.47;2.40;;;19.50;81.40;;;;;;5027869;28;20461;-84
2022/08/27 09:38:07;;;;;;;6.72;2.20;;;19.50;80.90;;;;;;5031233;28;20404;-84
2022/08/27 09:40:47;;;;;;;9.95;2.45;;;19.70;80.70;;;;;;5028516;28;20018;-84
2022/08/27 09:43:16;;;;;;;7.90;2.63;;;19.90;80.60;;;;;;5030753;28;20108;-84
2022/08/27 09:45:51;;;;;;;9.57;2.88;;;19.90;80.10;;;;;;5031401;28;20077;-83
2022/08/27 09:48:27;;;;;;;7.28;2.70;;;20.20;79.70;;;;;;5039257;28;20404;-83
2022/08/27 09:50:56;;;;;;;11.57;3.40;;;20.40;79.40;;;;;;5031421;28;20108;-83
2022/08/27 09:53:36;;;;;;;9.68;3.20;;;20.20;79.30;;;;;;5031412;28;20018;-84
2022/08/27 09:56:06;;;;;;;16.95;3.30;;;20.20;79.90;;;;;;5019377;28;20610;-84
2022/08/27 09:58:43;;;;;;;13.27;4.68;;;20.50;79.90;;;;;;5032853;28;20052;-84
2022/08/27 10:01:20;;;;;;;7.38;4.70;;;20.70;79.90;;;;;;5033097;28;20412;-83
2022/08/27 10:03:48;;;;;;;11.45;5.32;;;20.80;79.10;;;;;;5032579;28;20444;-84
2022/08/27 10:06:24;;;;;;;10.13;5.95;;;20.50;79.50;;;;;;5032635;28;20048;-84
2022/08/27 10:08:53;;;;;;;13.73;7.05;;;20.40;80.00;;;;;;5033190;28;20477;-84
2022/08/27 10:11:31;;;;;;;13.43;6.72;;;20.30;80.80;;;;;;5031619;28;20036;-84
2022/08/27 10:14:12;;;;;;;11.40;5.72;;;20.10;80.80;;;;;;5033306;28;20002;-84
2022/08/27 10:16:58;;;;;;;10.68;6.00;;;20.00;81.00;;;;;;5031334;28;20036;-84
2022/08/27 10:19:40;;;;;;;11.38;6.03;;;20.00;81.40;;;;;;5033595;28;20029;-83
2022/08/27 10:22:32;;;;;;;14.23;5.80;;;19.90;81.90;;;;;;5032434;28;20021;-84
2022/08/27 10:25:22;;;;;;;14.50;4.22;;;19.70;82.00;;;;;;5034369;28;20512;-84
2022/08/27 10:28:18;;;;;;;13.43;4.70;;;19.50;82.80;;;;;;5020519;28;20021;-84
2022/08/27 10:31:04;;;;;;;11.02;3.55;;;19.50;82.50;;;;;;5031010;28;20280;-84
2022/08/27 10:34:00;;;;;;;14.38;4.35;;;19.60;82.60;;;;;;5031330;28;20057;-84
2022/08/27 10:36:47;;;;;;;8.68;3.80;;;19.70;82.20;;;;;;5031308;28;20480;-83
2022/08/27 10:39:43;;;;;;;9.50;3.60;;;19.90;81.10;;;;;;5019971;28;20033;-84
2022/08/27 10:42:17;;;;;;;10.10;3.55;;;20.10;81.20;;;;;;5030872;28;20481;-83
2022/08/27 10:45:09;;;;;;;10.80;3.20;;;20.00;80.20;;;;;;5031320;28;20059;-83
2022/08/27 10:47:43;;;;;;;8.27;3.28;;;20.10;80.10;;;;;;5036042;28;20393;-84
2022/08/27 10:50:32;;;;;;;10.18;2.90;;;20.00;79.50;;;;;;5031807;28;20034;-84
2022/08/27 10:53:10;;;;;;;11.80;3.20;;;20.40;79.00;;;;;;5032296;28;20025;-83
2022/08/27 10:55:50;;;;;;;7.90;2.78;;;20.30;78.60;;;;;;5030684;28;20041;-84
2022/08/27 10:58:18;;;;;;;10.35;3.08;;;20.10;78.30;;;;;;5032464;28;20036;-84
2022/08/27 11:00:47;;;;;;;11.90;3.30;;;20.10;78.50;;;;;;5041787;28;20034;-84
2022/08/27 11:03:21;;;;;;;10.15;2.90;;;20.30;78.60;;;;;;5031389;28;20028;-85
2022/08/27 11:05:48;;;;;;;8.30;3.20;;;20.30;78.00;;;;;;5033110;28;20056;-83
2022/08/27 11:08:17;;;;;;;10.45;3.47;;;20.40;77.70;;;;;;5032020;28;20022;-84
2022/08/27 11:10:47;;;;;;;9.75;3.50;;;20.50;78.20;;;;;;5030631;28;20017;-84
2022/08/27 11:13:33;;;;;;;13.50;3.78;;;20.50;77.60;;;;;;5020329;28;20470;-84
2022/08/27 11:16:05;;;;;;;11.70;2.97;;;20.50;77.60;;;;;;5030711;28;20505;-84
2022/08/27 11:18:50;;;;;;;7.65;3.00;;;20.60;77.00;;;;;;5029641;28;20026;-84
2022/08/27 11:21:26;;;;;;;12.50;3.67;;;20.50;77.20;;;;;;5030207;28;20029;-84
2022/08/27 11:24:06;;;;;;;9.80;2.83;;;20.50;77.60;;;;;;5026885;28;20077;-84
2022/08/27 11:26:32;;;;;;;10.65;3.13;;;20.40;77.20;;;;;;5027359;28;20029;-83
2022/08/27 11:29:02;;;;;;;9.35;3.20;;;20.50;77.00;;;;;;5030487;28;20025;-84
2022/08/27 11:31:34;;;;;;;9.35;2.47;;;20.60;76.90;;;;;;5030888;28;20021;-84
2022/08/27 11:34:12;;;;;;;10.30;3.35;;;20.50;76.60;;;;;;5040077;28;20032;-84
2022/08/27 11:36:51;;;;;;;10.20;3.38;;;20.40;77.20;;;;;;5029655;28;20526;-84
2022/08/27 11:39:57;;;;;;;7.63;2.75;;;20.80;76.50;;;;;;5028298;28;20091;-84
2022/08/27 11:42:36;;;;;;;8.77;3.10;;;20.90;76.50;;;;;;5027207;28;20026;-84
2022/08/27 11:45:07;;;;;;;12.30;3.08;;;21.00;74.60;;;;;;5030613;28;20037;-84
2022/08/27 11:47:33;;;;;;;10.30;3.25;;;21.20;74.50;;;;;;5028103;28;20033;-84
2022/08/27 11:50:00;;;;;;;10.90;3.38;;;21.50;74.80;;;;;;5031448;28;20034;-84
2022/08/27 11:52:31;;;;;;;10.45;2.58;;;21.70;74.00;;;;;;5030408;28;20033;-83
2022/08/27 11:55:13;;;;;;;10.65;2.30;;;21.90;73.00;;;;;;5031310;28;20068;-85
2022/08/27 11:57:39;;;;;;;7.43;2.35;;;21.70;71.10;;;;;;5026092;28;20116;-84
2022/08/27 12:00:27;;;;;;;6.30;2.40;;;21.60;71.30;;;;;;5031379;28;20068;-84
2022/08/27 12:03:01;;;;;;;10.65;2.72;;;21.90;71.50;;;;;;5031088;28;20037;-84
2022/08/27 12:05:38;;;;;;;8.63;2.10;;;21.90;69.30;;;;;;5031009;28;20060;-83
2022/08/27 12:08:21;;;;;;;8.77;1.90;;;22.10;68.40;;;;;;5031099;28;20039;-84
2022/08/27 12:11:00;;;;;;;9.10;2.30;;;22.00;69.00;;;;;;5030377;28;20512;-85
2022/08/27 12:13:33;;;;;;;7.88;1.92;;;22.30;68.60;;;;;;5022586;28;20026;-84
2022/08/27 12:16:24;;;;;;;7.53;2.20;;;22.50;68.40;;;;;;5035093;28;20156;-84
2022/08/27 12:19:07;;;;;;;7.80;2.00;;;22.90;66.80;;;;;;5035734;28;20025;-84
2022/08/27 12:21:39;;;;;;;7.60;1.75;;;22.90;66.40;;;;;;5036015;28;20018;-84
2022/08/27 12:24:19;;;;;;;9.20;1.85;;;22.70;64.30;;;;;;5034526;28;20080;-84
2022/08/27 12:27:11;;;;;;;6.00;1.45;;;22.70;63.80;;;;;;5040931;28;20180;-85
2022/08/27 12:30:03;;;;;;;9.23;2.05;;;23.00;63.80;;;;;;5025856;28;20492;-84
2022/08/27 12:32:38;;;;;;;7.05;1.85;;;22.90;63.00;;;;;;5035074;28;20040;-85
2022/08/27 12:35:07;;;;;;;6.55;1.80;;;23.10;62.50;;;;;;5034372;28;20029;-84
2022/08/27 12:37:55;;;;;;;4.65;1.58;;;23.00;62.10;;;;;;5034340;28;20087;-84
2022/08/27 12:40:39;;;;;;;8.65;2.40;;;23.60;60.00;;;;;;5022188;28;20069;-85
2022/08/27 12:43:12;;;;;;;8.15;1.70;;;23.80;58.60;;;;;;5039411;28;20078;-85
2022/08/27 12:45:47;;;;;;;10.15;2.15;;;25.00;57.60;;;;;;5033928;28;20073;-85
2022/08/27 12:48:14;;;;;;;7.25;1.90;;;25.80;57.10;;;;;;5033700;28;20033;-85
2022/08/27 12:50:40;;;;;;;8.60;1.60;;;26.20;56.00;;;;;;5033340;28;20083;-84
2022/08/27 12:53:30;;;;;;;5.90;1.30;;;26.40;53.80;;;;;;5033156;28;20025;-85
2022/08/27 12:56:17;;;;;;;7.20;1.60;;;26.70;53.10;;;;;;5033162;28;20066;-85
2022/08/27 12:59:11;;;;;;;7.65;1.63;;;26.90;51.70;;;;;;5038979;28;20078;-83
2022/08/27 13:01:46;;;;;;;7.43;1.55;;;27.20;50.20;;;;;;5033806;28;20025;-83